Elisalex Schulte — 9V9154 — position and weather

sailwx.info

Track history (hours):
 
Tides and Currents Weather Stations Pressure Air Temp Water Temp Dewpoint Dewpoint Depression Visibility Wind Speed Wind Dir Waves Ship Positions

Elisalex Schulte

Last reported at 2017-Aug-23 23:03 UTC. Time now 2017-Aug-24 02:57 UTC.
Position N 51°01' W 005°53'.

Length 144 m; draft 8.1 m.

Type: Tanker. MMSI: 563052000.

Date/timePositionNaut miles runAvg speedWind from/ knotsBaromVisibWave heightAir tempDewpointWater temp
2017-Aug-23 23:03N 51°01' W 005°53'311.9
2017-Aug-23 22:49N 50°58' W 005°53'511.8
2017-Aug-23 22:23N 50°53' W 005°53'2611.8
2017-Aug-23 20:08N 50°26' W 005°53'212.1
2017-Aug-23 20:00N 50°25' W 005°53'1012.1
2017-Aug-23 19:10N 50°15' W 005°53'65 9.9
2017-Aug-23 12:39N 49°52' W 004°19'214.3
2017-Aug-23 12:30N 49°53' W 004°16'813.5
2017-Aug-23 11:56N 49°54' W 004°04'613.0
2017-Aug-23 11:30N 49°55' W 003°55'612.6
2017-Aug-23 11:00N 49°55' W 003°46'611.9
2017-Aug-23 10:30N 49°57' W 003°37'611.4
2017-Aug-23 10:00N 49°57' W 003°28'511.1
2017-Aug-23 09:30N 49°58' W 003°19'510.6
2017-Aug-23 09:00N 49°59' W 003°11'510.2
2017-Aug-23 08:30N 49°59' W 003°03'5 9.8
2017-Aug-23 08:00N 50°00' W 002°56'5 9.8
2017-Aug-23 07:30N 50°01' W 002°48'5 9.9
2017-Aug-23 07:00N 50°03' W 002°41'1610.8
2017-Aug-23 05:32N 50°07' W 002°17'312.2
2017-Aug-23 05:19N 50°08' W 002°13'513.0
2017-Aug-23 04:59N 50°09' W 002°06'713.9
2017-Aug-23 04:28N 50°11' W 001°56'714.7
2017-Aug-23 04:00N 50°13' W 001°45'815.2
2017-Aug-23 03:30N 50°15' W 001°34'815.6
2017-Aug-23 03:00N 50°17' W 001°22'1416.1
2017-Aug-23 02:08N 50°20' W 001°01'316.2
2017-Aug-23 01:59N 50°21' W 000°57'815.0
2017-Aug-23 01:26N 50°23' W 000°45'1313.9
2017-Aug-23 00:31N 50°27' W 000°26'014.1
2017-Aug-23 00:31N 50°27' W 000°26'613.0
2017-Aug-23 00:00N 50°28' W 000°16'612.3
2017-Aug-22 23:30N 50°30' W 000°06'611.5
2017-Aug-22 23:00N 50°32' E 000°02'610.9
2017-Aug-22 22:27N 50°33' E 000°12'510.3
2017-Aug-22 22:00N 50°34' E 000°19'610.0
2017-Aug-22 21:27N 50°36' E 000°27'510.2
2017-Aug-22 21:00N 50°37' E 000°34'610.8
2017-Aug-22 20:30N 50°40' E 000°41'611.9
2017-Aug-22 20:00N 50°44' E 000°48'713.0
2017-Aug-22 19:30N 50°48' E 000°56'1214.3
2017-Aug-22 18:38N 50°56' E 001°11'214.6
2017-Aug-22 18:30N 50°57' E 001°14'714.8
2017-Aug-22 18:00N 51°02' E 001°23'714.2
2017-Aug-22 17:30N 51°06' E 001°32'713.1
2017-Aug-22 17:00N 51°11' E 001°40'612.4
2017-Aug-22 16:30N 51°15' E 001°47'611.7
2017-Aug-22 16:00N 51°20' E 001°51'611.1
2017-Aug-22 15:30N 51°25' E 001°56'510.7
2017-Aug-22 15:00N 51°29' E 002°01'510.6
2017-Aug-22 14:30N 51°33' E 002°07'510.5
2017-Aug-22 14:00N 51°37' E 002°13'5411.9
2017-Aug-22 09:27N 52°26' E 002°50'613.3
2017-Aug-22 09:01N 52°31' E 002°54'714.1
2017-Aug-22 08:30N 52°38' E 002°60'713.9
2017-Aug-22 08:00N 52°44' E 003°05'713.6
2017-Aug-22 07:30N 52°50' E 003°11'1112.9
2017-Aug-22 06:40N 52°60' E 003°18'1312.0
2017-Aug-22 05:33N 53°12' E 003°24'111.7
2017-Aug-22 05:30N 53°13' E 003°25'17510.7
2017-Aug-21 13:06N 54°01' E 008°09'113.1
2017-Aug-21 12:59N 54°00' E 008°11'610.8
2017-Aug-21 12:29N 53°60' E 008°20'612.9
2017-Aug-21 12:00N 53°58' E 008°31'611.7
2017-Aug-21 11:30N 53°56' E 008°40'510.9
2017-Aug-21 11:00N 53°52' E 008°45'510.0
2017-Aug-21 10:30N 53°51' E 008°53'510.1
2017-Aug-21 10:01N 53°51' E 009°01'4 8.9
2017-Aug-21 09:30N 53°53' E 009°08'3 6.8
2017-Aug-21 09:01N 53°53' E 009°14'5 9.1
2017-Aug-21 08:30N 53°50' E 009°21'510.0
2017-Aug-21 08:00N 53°46' E 009°24'510.0
2017-Aug-21 07:30N 53°42' E 009°30'510.7
2017-Aug-21 07:00N 53°37' E 009°33'510.4
2017-Aug-21 06:30N 53°34' E 009°41'510.7
2017-Aug-21 06:00N 53°33' E 009°49'4 8.4
2017-Aug-21 05:30N 53°32' E 009°56'2 3.2
2017-Aug-21 04:59N 53°31' E 009°57'0 0.0
2017-Aug-21 04:29N 53°31' E 009°57'0 0.0
2017-Aug-21 03:59N 53°31' E 009°57'0 0.0
2017-Aug-21 03:29N 53°31' E 009°57'0 0.0
2017-Aug-21 02:59N 53°31' E 009°57'0 0.0
2017-Aug-21 02:29N 53°31' E 009°57'0 0.0
2017-Aug-21 01:56N 53°31' E 009°57'0 0.0
2017-Aug-21 01:29N 53°31' E 009°57'0 0.0
2017-Aug-21 00:59N 53°31' E 009°57'0 0.0
2017-Aug-21 00:29N 53°31' E 009°57'0 0.0
2017-Aug-20 23:59N 53°31' E 009°57'0 0.0
2017-Aug-20 23:29N 53°31' E 009°57'0 0.0
2017-Aug-20 22:59N 53°31' E 009°57'0 0.0
2017-Aug-20 22:29N 53°31' E 009°57'0 0.0
2017-Aug-20 21:59N 53°31' E 009°57'0 0.0
2017-Aug-20 21:29N 53°31' E 009°57'0 0.0
2017-Aug-20 20:59N 53°31' E 009°57'0 0.0
2017-Aug-20 20:29N 53°31' E 009°57'0 0.0
2017-Aug-20 19:59N 53°31' E 009°57'0 0.0
2017-Aug-20 19:29N 53°31' E 009°57'0 0.0
2017-Aug-20 18:59N 53°31' E 009°57'0 0.0
2017-Aug-20 18:29N 53°31' E 009°57'0 0.0
2017-Aug-20 17:59N 53°31' E 009°57'0 0.0
2017-Aug-20 17:29N 53°31' E 009°57'0 0.0
2017-Aug-20 16:59N 53°31' E 009°57'0 0.0
2017-Aug-20 16:29N 53°31' E 009°57'0 0.0
2017-Aug-20 15:59N 53°31' E 009°57'0 0.0
2017-Aug-20 15:29N 53°31' E 009°57'0 0.0
2017-Aug-20 14:59N 53°31' E 009°57'0 0.0
2017-Aug-20 14:29N 53°31' E 009°57'0 0.0
2017-Aug-20 13:59N 53°31' E 009°57'0 0.0
2017-Aug-20 13:29N 53°31' E 009°57'0 0.0
2017-Aug-20 12:56N 53°31' E 009°57'0 0.0
2017-Aug-20 12:29N 53°31' E 009°57'0 0.0
2017-Aug-20 11:59N 53°31' E 009°57'0 0.0
2017-Aug-20 11:29N 53°31' E 009°57'0 0.0
2017-Aug-20 10:59N 53°31' E 009°57'0 0.0
2017-Aug-20 10:29N 53°31' E 009°57'0 0.0
2017-Aug-20 09:59N 53°31' E 009°57'0 0.0
2017-Aug-20 09:29N 53°31' E 009°57'0 0.0
2017-Aug-20 08:59N 53°31' E 009°57'0 0.0
2017-Aug-20 08:29N 53°31' E 009°57'0 0.0
2017-Aug-20 07:59N 53°31' E 009°57'0 0.0
2017-Aug-20 07:29N 53°31' E 009°57'0 0.0
2017-Aug-20 06:59N 53°31' E 009°57'0 0.0
2017-Aug-20 06:29N 53°31' E 009°57'0 0.0
2017-Aug-20 05:59N 53°31' E 009°57'0 0.0
2017-Aug-20 05:29N 53°31' E 009°57'0 0.0
2017-Aug-20 04:59N 53°31' E 009°57'0 0.0
2017-Aug-20 04:29N 53°31' E 009°57'0 0.0
2017-Aug-20 03:59N 53°31' E 009°57'0 0.0
2017-Aug-20 03:29N 53°31' E 009°57'0 0.0
2017-Aug-20 02:59N 53°31' E 009°57'0 0.0
2017-Aug-20 02:29N 53°31' E 009°57'0 0.0
2017-Aug-20 01:59N 53°31' E 009°57'0 0.0
2017-Aug-20 01:29N 53°31' E 009°57'0 0.0
2017-Aug-20 00:59N 53°31' E 009°57'0 0.0
2017-Aug-20 00:29N 53°31' E 009°57'0 0.0
2017-Aug-19 23:59N 53°31' E 009°57'0 0.0
2017-Aug-19 23:29N 53°31' E 009°57'0 0.0
2017-Aug-19 22:59N 53°31' E 009°57'0 0.0
2017-Aug-19 22:29N 53°31' E 009°57'0 0.0
2017-Aug-19 21:59N 53°31' E 009°57'0 0.0
2017-Aug-19 21:29N 53°31' E 009°57'0 0.0
2017-Aug-19 20:59N 53°31' E 009°57'0 0.0
2017-Aug-19 20:29N 53°31' E 009°57'0 0.0
2017-Aug-19 19:59N 53°31' E 009°57'0 0.0
2017-Aug-19 19:29N 53°31' E 009°57'0 0.0
2017-Aug-19 18:59N 53°31' E 009°57'0 0.0
2017-Aug-19 18:29N 53°31' E 009°57'0 0.0
2017-Aug-19 17:59N 53°31' E 009°57'0 0.0
2017-Aug-19 17:29N 53°31' E 009°57'0 0.0
2017-Aug-19 16:59N 53°31' E 009°57'0 0.0
2017-Aug-19 16:29N 53°31' E 009°57'0 0.0
2017-Aug-19 15:59N 53°31' E 009°57'0 0.0
2017-Aug-19 15:29N 53°31' E 009°57'0 0.0
2017-Aug-19 14:59N 53°31' E 009°57'0 0.0
2017-Aug-19 13:59N 53°31' E 009°57'0 0.0
2017-Aug-19 13:29N 53°31' E 009°57'0 0.0
2017-Aug-19 12:59N 53°31' E 009°57'0 0.0
2017-Aug-19 12:29N 53°31' E 009°57'0 0.0
2017-Aug-19 11:56N 53°31' E 009°57'0 0.0
2017-Aug-19 11:29N 53°31' E 009°57'0 0.0
2017-Aug-19 10:59N 53°31' E 009°57'0 0.0
2017-Aug-19 10:29N 53°31' E 009°57'0 0.0
2017-Aug-19 09:59N 53°31' E 009°57'0 0.0
2017-Aug-19 09:29N 53°31' E 009°57'0 0.0
2017-Aug-19 08:59N 53°31' E 009°57'0 0.0
2017-Aug-19 08:29N 53°31' E 009°57'0 0.0
2017-Aug-19 07:59N 53°31' E 009°57'0 0.0
2017-Aug-19 07:29N 53°31' E 009°57'0 0.0
2017-Aug-19 06:59N 53°31' E 009°57'0 0.0
2017-Aug-19 06:29N 53°31' E 009°57'0 0.0
2017-Aug-19 05:59N 53°31' E 009°57'0 0.0
2017-Aug-19 05:29N 53°31' E 009°57'0 0.0
2017-Aug-19 04:59N 53°31' E 009°57'0 0.0
2017-Aug-19 04:29N 53°31' E 009°57'0 0.0
2017-Aug-19 03:59N 53°31' E 009°57'0 0.0
2017-Aug-19 03:29N 53°31' E 009°57'0 0.0
2017-Aug-19 02:59N 53°31' E 009°57'0 0.0
2017-Aug-19 02:29N 53°31' E 009°57'0 0.0
2017-Aug-19 01:59N 53°31' E 009°57'0 0.0
2017-Aug-19 01:29N 53°31' E 009°57'0 0.0
2017-Aug-19 00:59N 53°31' E 009°57'0 0.0
2017-Aug-19 00:29N 53°31' E 009°57'0 0.0
2017-Aug-18 23:59N 53°31' E 009°57'0 0.0
2017-Aug-18 23:29N 53°31' E 009°57'0 0.0
2017-Aug-18 22:59N 53°31' E 009°57'0 0.0
2017-Aug-18 22:29N 53°31' E 009°57'0 0.0
2017-Aug-18 22:00N 53°31' E 009°57'0 0.5
2017-Aug-18 21:31N 53°31' E 009°57'2 4.9
2017-Aug-18 21:01N 53°32' E 009°54'4 8.5
2017-Aug-18 20:31N 53°33' E 009°47'611.6
2017-Aug-18 20:00N 53°35' E 009°38'611.5
2017-Aug-18 19:30N 53°39' E 009°31'612.7
2017-Aug-18 19:01N 53°44' E 009°26'612.7
2017-Aug-18 18:30N 53°50' E 009°21'612.2
2017-Aug-18 18:01N 53°53' E 009°12'610.9
2017-Aug-18 17:30N 53°52' E 009°02'613.0
2017-Aug-18 17:00N 53°50' E 008°52'611.6
2017-Aug-18 16:30N 53°53' E 008°43'611.7
2017-Aug-18 16:00N 53°57' E 008°37'612.5
2017-Aug-18 15:30N 53°59' E 008°26'611.6
2017-Aug-18 15:00N 53°59' E 008°17'7 6.6
2017-Aug-18 14:00N 54°02' E 008°07'3 5.8
2017-Aug-18 13:30N 54°02' E 008°12'0 0.1
2017-Aug-18 12:09N 54°02' E 008°12'0 0.0
2017-Aug-18 11:51N 54°02' E 008°12'0 0.0
2017-Aug-18 11:27N 54°02' E 008°12'0 0.1
2017-Aug-18 11:00N 54°02' E 008°12'0 0.0
2017-Aug-18 10:30N 54°03' E 008°12'0 0.0
2017-Aug-18 09:09N 54°03' E 008°12'0 0.1
2017-Aug-18 08:57N 54°02' E 008°12'0 0.0
2017-Aug-18 08:27N 54°03' E 008°12'0 0.0
2017-Aug-18 07:39N 54°02' E 008°12'0 0.0
2017-Aug-18 06:30N 54°02' E 008°12'0 0.0
2017-Aug-18 06:00N 54°02' E 008°12'0 0.0
2017-Aug-18 05:30N 54°02' E 008°12'0 0.0
2017-Aug-18 04:54N 54°02' E 008°12'0 0.0
2017-Aug-18 04:27N 54°02' E 008°12'0 0.0
2017-Aug-18 04:00N 54°02' E 008°12'0 0.0
2017-Aug-18 03:30N 54°02' E 008°12'0 0.0
2017-Aug-18 03:00N 54°02' E 008°12'0 0.0
2017-Aug-18 02:27N 54°02' E 008°12'0 0.0
2017-Aug-18 02:00N 54°02' E 008°12'0 0.1
2017-Aug-18 01:30N 54°02' E 008°12'0 0.0
2017-Aug-18 01:00N 54°03' E 008°12'0 0.0
2017-Aug-18 00:30N 54°03' E 008°12'0 0.1
2017-Aug-18 00:00N 54°03' E 008°12'0 0.1
2017-Aug-17 23:30N 54°02' E 008°12'0 0.0
2017-Aug-17 23:00N 54°02' E 008°12'0 0.1
2017-Aug-17 22:30N 54°03' E 008°12'0 0.0
2017-Aug-17 22:00N 54°03' E 008°12'0 0.0
2017-Aug-17 21:30N 54°03' E 008°12'0 0.0
2017-Aug-17 20:42N 54°03' E 008°12'0 0.0
2017-Aug-17 20:15N 54°03' E 008°12'0 0.1
2017-Aug-17 20:00N 54°03' E 008°12'0 0.1
2017-Aug-17 19:30N 54°02' E 008°12'0 0.1
2017-Aug-17 19:00N 54°02' E 008°12'0 0.0
2017-Aug-17 18:30N 54°02' E 008°12'0 0.0
2017-Aug-17 18:00N 54°02' E 008°12'0 0.0
2017-Aug-17 17:18N 54°02' E 008°12'0 0.0
2017-Aug-17 17:00N 54°02' E 008°12'0 0.0
2017-Aug-17 16:30N 54°02' E 008°12'0 0.0
2017-Aug-17 16:00N 54°02' E 008°12'0 0.1
2017-Aug-17 15:24N 54°02' E 008°12'0 0.0
2017-Aug-17 14:18N 54°02' E 008°12'0 0.1
2017-Aug-17 13:57N 54°03' E 008°12'0 0.1
2017-Aug-17 13:30N 54°02' E 008°12'0 0.1
2017-Aug-17 12:57N 54°02' E 008°12'0 0.0
2017-Aug-17 12:30N 54°02' E 008°12'0 0.0
2017-Aug-17 10:00N 54°02' E 008°12'0 0.0
2017-Aug-17 09:24N 54°02' E 008°12'0 0.0
2017-Aug-17 08:51N 54°02' E 008°12'0 0.0
2017-Aug-17 06:21N 54°02' E 008°12'0 0.0
2017-Aug-17 05:51N 54°02' E 008°12'0 0.0
2017-Aug-17 05:30N 54°02' E 008°12'0 0.0
2017-Aug-17 04:57N 54°02' E 008°12'0 0.0
2017-Aug-17 04:06N 54°02' E 008°12'0 0.1
2017-Aug-17 04:00N 54°02' E 008°12'0 0.0
2017-Aug-17 03:30N 54°02' E 008°12'0 0.0
2017-Aug-17 03:00N 54°02' E 008°12'0 0.0
2017-Aug-17 02:27N 54°02' E 008°12'0 0.0
2017-Aug-17 02:00N 54°02' E 008°12'0 0.0
2017-Aug-17 01:30N 54°02' E 008°12'0 0.0
2017-Aug-17 00:39N 54°02' E 008°12'0 0.0
2017-Aug-17 00:24N 54°02' E 008°12'0 0.0
2017-Aug-17 00:00N 54°02' E 008°12'0 0.0
2017-Aug-16 23:30N 54°02' E 008°12'0 0.0
2017-Aug-16 23:00N 54°02' E 008°12'0 0.0
2017-Aug-16 22:24N 54°02' E 008°12'0 0.0
2017-Aug-16 22:00N 54°02' E 008°12'0 0.0
2017-Aug-16 21:30N 54°02' E 008°12'0 0.0
2017-Aug-16 21:00N 54°02' E 008°12'0 0.0
2017-Aug-16 20:27N 54°02' E 008°12'0 0.0
2017-Aug-16 19:54N 54°02' E 008°12'0 0.0
2017-Aug-16 19:30N 54°02' E 008°12'0 0.0
2017-Aug-16 18:54N 54°02' E 008°12'0 0.0
2017-Aug-16 18:27N 54°02' E 008°12'0 0.1
2017-Aug-16 17:57N 54°02' E 008°12'0 0.0
2017-Aug-16 10:42N 54°02' E 008°12'0 0.1
2017-Aug-16 10:30N 54°02' E 008°12'0 0.0
2017-Aug-16 09:45N 54°02' E 008°12'0 0.0
2017-Aug-16 05:39N 54°02' E 008°12'0 0.0
2017-Aug-16 05:09N 54°02' E 008°12'0 0.1
2017-Aug-16 04:57N 54°02' E 008°12'0 0.0
2017-Aug-16 04:30N 54°02' E 008°12'0 0.0
2017-Aug-16 04:00N 54°02' E 008°12'0 0.1
2017-Aug-16 03:30N 54°02' E 008°12'0 0.0
2017-Aug-16 02:51N 54°02' E 008°12'0 0.0
2017-Aug-16 02:30N 54°02' E 008°12'0 0.0
2017-Aug-16 02:00N 54°02' E 008°12'0 0.0
2017-Aug-16 01:30N 54°02' E 008°12'0 0.1
2017-Aug-16 01:00N 54°02' E 008°12'0 0.0
2017-Aug-16 00:27N 54°02' E 008°12'0 0.2
2017-Aug-16 00:00N 54°02' E 008°12'0 0.1
2017-Aug-15 23:27N 54°02' E 008°12'0 0.0
2017-Aug-15 23:00N 54°02' E 008°12'0 0.0
2017-Aug-15 22:30N 54°02' E 008°12'0 0.0
2017-Aug-15 22:00N 54°02' E 008°12'0 0.0
2017-Aug-15 21:30N 54°02' E 008°12'0 0.0
2017-Aug-15 20:54N 54°02' E 008°12'0 0.0
2017-Aug-15 20:27N 54°02' E 008°12'0 0.0
2017-Aug-15 19:57N 54°02' E 008°12'0 0.0
2017-Aug-15 19:27N 54°02' E 008°12'0 0.0
2017-Aug-15 18:57N 54°02' E 008°12'0 0.1
2017-Aug-15 18:30N 54°02' E 008°12'0 0.1
2017-Aug-15 17:27N 54°02' E 008°12'0 0.1
2017-Aug-15 16:57N 54°02' E 008°12'0 0.0
2017-Aug-15 16:18N 54°02' E 008°12'0 0.0
2017-Aug-15 13:48N 54°02' E 008°12'0 0.0
2017-Aug-15 13:30N 54°02' E 008°12'0 0.1
2017-Aug-15 13:00N 54°02' E 008°12'0 0.0
2017-Aug-15 08:27N 54°02' E 008°12'0 0.0
2017-Aug-15 06:42N 54°02' E 008°12'0 0.0
2017-Aug-15 06:27N 54°02' E 008°12'0 0.0
2017-Aug-15 06:00N 54°02' E 008°12'0 0.0
2017-Aug-15 05:30N 54°02' E 008°12'0 0.0
2017-Aug-15 04:24N 54°02' E 008°12'0 0.0
2017-Aug-15 04:00N 54°02' E 008°12'0 0.0
2017-Aug-15 03:27N 54°02' E 008°12'0 0.0
2017-Aug-15 02:33N 54°02' E 008°12'0 0.1
2017-Aug-15 02:27N 54°02' E 008°12'0 0.1
2017-Aug-15 01:54N 54°02' E 008°12'0 0.1
2017-Aug-15 01:24N 54°02' E 008°12'0 0.1
2017-Aug-15 01:00N 54°02' E 008°12'0 0.0
2017-Aug-15 00:15N 54°02' E 008°12'0 0.1
2017-Aug-15 00:00N 54°02' E 008°12'0 0.0
2017-Aug-14 23:30N 54°02' E 008°12'0 0.0
2017-Aug-14 23:00N 54°02' E 008°12'0 0.0
2017-Aug-14 22:30N 54°02' E 008°12'0 0.0
2017-Aug-14 21:51N 54°02' E 008°12'0 0.0
2017-Aug-14 21:30N 54°02' E 008°12'0 0.0
2017-Aug-14 20:45N 54°02' E 008°12'0 0.0
2017-Aug-14 20:21N 54°02' E 008°12'0 0.0
2017-Aug-14 20:00N 54°02' E 008°12'0 0.0
2017-Aug-14 16:36N 54°02' E 008°12'0 0.0
2017-Aug-14 07:24N 54°02' E 008°11'0 0.0
2017-Aug-14 06:00N 54°02' E 008°11'0 0.0
2017-Aug-14 05:30N 54°02' E 008°11'0 0.0
2017-Aug-14 05:00N 54°02' E 008°11'0 0.1
2017-Aug-14 03:39N 54°02' E 008°12'0 0.1
2017-Aug-14 03:27N 54°02' E 008°12'0 0.0
2017-Aug-14 02:30N 54°02' E 008°12'0 0.0
2017-Aug-14 01:54N 54°02' E 008°12'0 0.0
2017-Aug-14 01:00N 54°02' E 008°12'0 0.0
2017-Aug-14 00:24N 54°02' E 008°12'0 0.0
2017-Aug-14 00:00N 54°02' E 008°12'  
Track history (hours):
 
Tides and Currents Weather Stations Pressure Air Temp Water Temp Dewpoint Dewpoint Depression Visibility Wind Speed Wind Dir Waves Ship Positions

Elisalex Schulte

Last reported at 2017-Aug-23 23:03 UTC. Time now 2017-Aug-24 02:57 UTC.
Position N 51°01' W 005°53'.

Length 144 m; draft 8.1 m.

Type: Tanker. MMSI: 563052000.

Date/timePositionNaut miles runAvg speedWind from/ knotsBaromVisibWave heightAir tempDewpointWater temp
2017-Aug-23 23:03N 51°01' W 005°53'311.9
2017-Aug-23 22:49N 50°58' W 005°53'511.8
2017-Aug-23 22:23N 50°53' W 005°53'2611.8
2017-Aug-23 20:08N 50°26' W 005°53'212.1
2017-Aug-23 20:00N 50°25' W 005°53'1012.1
2017-Aug-23 19:10N 50°15' W 005°53'65 9.9
2017-Aug-23 12:39N 49°52' W 004°19'214.3
2017-Aug-23 12:30N 49°53' W 004°16'813.5
2017-Aug-23 11:56N 49°54' W 004°04'613.0
2017-Aug-23 11:30N 49°55' W 003°55'612.6
2017-Aug-23 11:00N 49°55' W 003°46'611.9
2017-Aug-23 10:30N 49°57' W 003°37'611.4
2017-Aug-23 10:00N 49°57' W 003°28'511.1
2017-Aug-23 09:30N 49°58' W 003°19'510.6
2017-Aug-23 09:00N 49°59' W 003°11'510.2
2017-Aug-23 08:30N 49°59' W 003°03'5 9.8
2017-Aug-23 08:00N 50°00' W 002°56'5 9.8
2017-Aug-23 07:30N 50°01' W 002°48'5 9.9
2017-Aug-23 07:00N 50°03' W 002°41'1610.8
2017-Aug-23 05:32N 50°07' W 002°17'312.2
2017-Aug-23 05:19N 50°08' W 002°13'513.0
2017-Aug-23 04:59N 50°09' W 002°06'713.9
2017-Aug-23 04:28N 50°11' W 001°56'714.7
2017-Aug-23 04:00N 50°13' W 001°45'815.2
2017-Aug-23 03:30N 50°15' W 001°34'815.6
2017-Aug-23 03:00N 50°17' W 001°22'1416.1
2017-Aug-23 02:08N 50°20' W 001°01'316.2
2017-Aug-23 01:59N 50°21' W 000°57'815.0
2017-Aug-23 01:26N 50°23' W 000°45'1313.9
2017-Aug-23 00:31N 50°27' W 000°26'014.1
2017-Aug-23 00:31N 50°27' W 000°26'613.0
2017-Aug-23 00:00N 50°28' W 000°16'612.3
2017-Aug-22 23:30N 50°30' W 000°06'611.5
2017-Aug-22 23:00N 50°32' E 000°02'610.9
2017-Aug-22 22:27N 50°33' E 000°12'510.3
2017-Aug-22 22:00N 50°34' E 000°19'610.0
2017-Aug-22 21:27N 50°36' E 000°27'510.2
2017-Aug-22 21:00N 50°37' E 000°34'610.8
2017-Aug-22 20:30N 50°40' E 000°41'611.9
2017-Aug-22 20:00N 50°44' E 000°48'713.0
2017-Aug-22 19:30N 50°48' E 000°56'1214.3
2017-Aug-22 18:38N 50°56' E 001°11'214.6
2017-Aug-22 18:30N 50°57' E 001°14'714.8
2017-Aug-22 18:00N 51°02' E 001°23'714.2
2017-Aug-22 17:30N 51°06' E 001°32'713.1
2017-Aug-22 17:00N 51°11' E 001°40'612.4
2017-Aug-22 16:30N 51°15' E 001°47'611.7
2017-Aug-22 16:00N 51°20' E 001°51'611.1
2017-Aug-22 15:30N 51°25' E 001°56'510.7
2017-Aug-22 15:00N 51°29' E 002°01'510.6
2017-Aug-22 14:30N 51°33' E 002°07'510.5
2017-Aug-22 14:00N 51°37' E 002°13'5411.9
2017-Aug-22 09:27N 52°26' E 002°50'613.3
2017-Aug-22 09:01N 52°31' E 002°54'714.1
2017-Aug-22 08:30N 52°38' E 002°60'713.9
2017-Aug-22 08:00N 52°44' E 003°05'713.6
2017-Aug-22 07:30N 52°50' E 003°11'1112.9
2017-Aug-22 06:40N 52°60' E 003°18'1312.0
2017-Aug-22 05:33N 53°12' E 003°24'111.7
2017-Aug-22 05:30N 53°13' E 003°25'17510.7
2017-Aug-21 13:06N 54°01' E 008°09'113.1
2017-Aug-21 12:59N 54°00' E 008°11'610.8
2017-Aug-21 12:29N 53°60' E 008°20'612.9
2017-Aug-21 12:00N 53°58' E 008°31'611.7
2017-Aug-21 11:30N 53°56' E 008°40'510.9
2017-Aug-21 11:00N 53°52' E 008°45'510.0
2017-Aug-21 10:30N 53°51' E 008°53'510.1
2017-Aug-21 10:01N 53°51' E 009°01'4 8.9
2017-Aug-21 09:30N 53°53' E 009°08'3 6.8
2017-Aug-21 09:01N 53°53' E 009°14'5 9.1
2017-Aug-21 08:30N 53°50' E 009°21'510.0
2017-Aug-21 08:00N 53°46' E 009°24'510.0
2017-Aug-21 07:30N 53°42' E 009°30'510.7
2017-Aug-21 07:00N 53°37' E 009°33'510.4
2017-Aug-21 06:30N 53°34' E 009°41'510.7
2017-Aug-21 06:00N 53°33' E 009°49'4 8.4
2017-Aug-21 05:30N 53°32' E 009°56'2 3.2
2017-Aug-21 04:59N 53°31' E 009°57'0 0.0
2017-Aug-21 04:29N 53°31' E 009°57'0 0.0
2017-Aug-21 03:59N 53°31' E 009°57'0 0.0
2017-Aug-21 03:29N 53°31' E 009°57'0 0.0
2017-Aug-21 02:59N 53°31' E 009°57'0 0.0
2017-Aug-21 02:29N 53°31' E 009°57'0 0.0
2017-Aug-21 01:56N 53°31' E 009°57'0 0.0
2017-Aug-21 01:29N 53°31' E 009°57'0 0.0
2017-Aug-21 00:59N 53°31' E 009°57'0 0.0
2017-Aug-21 00:29N 53°31' E 009°57'0 0.0
2017-Aug-20 23:59N 53°31' E 009°57'0 0.0
2017-Aug-20 23:29N 53°31' E 009°57'0 0.0
2017-Aug-20 22:59N 53°31' E 009°57'0 0.0
2017-Aug-20 22:29N 53°31' E 009°57'0 0.0
2017-Aug-20 21:59N 53°31' E 009°57'0 0.0
2017-Aug-20 21:29N 53°31' E 009°57'0 0.0
2017-Aug-20 20:59N 53°31' E 009°57'0 0.0
2017-Aug-20 20:29N 53°31' E 009°57'0 0.0
2017-Aug-20 19:59N 53°31' E 009°57'0 0.0
2017-Aug-20 19:29N 53°31' E 009°57'0 0.0
2017-Aug-20 18:59N 53°31' E 009°57'0 0.0
2017-Aug-20 18:29N 53°31' E 009°57'0 0.0
2017-Aug-20 17:59N 53°31' E 009°57'0 0.0
2017-Aug-20 17:29N 53°31' E 009°57'0 0.0
2017-Aug-20 16:59N 53°31' E 009°57'0 0.0
2017-Aug-20 16:29N 53°31' E 009°57'0 0.0
2017-Aug-20 15:59N 53°31' E 009°57'0 0.0
2017-Aug-20 15:29N 53°31' E 009°57'0 0.0
2017-Aug-20 14:59N 53°31' E 009°57'0 0.0
2017-Aug-20 14:29N 53°31' E 009°57'0 0.0
2017-Aug-20 13:59N 53°31' E 009°57'0 0.0
2017-Aug-20 13:29N 53°31' E 009°57'0 0.0
2017-Aug-20 12:56N 53°31' E 009°57'0 0.0
2017-Aug-20 12:29N 53°31' E 009°57'0 0.0
2017-Aug-20 11:59N 53°31' E 009°57'0 0.0
2017-Aug-20 11:29N 53°31' E 009°57'0 0.0
2017-Aug-20 10:59N 53°31' E 009°57'0 0.0
2017-Aug-20 10:29N 53°31' E 009°57'0 0.0
2017-Aug-20 09:59N 53°31' E 009°57'0 0.0
2017-Aug-20 09:29N 53°31' E 009°57'0 0.0
2017-Aug-20 08:59N 53°31' E 009°57'0 0.0
2017-Aug-20 08:29N 53°31' E 009°57'0 0.0
2017-Aug-20 07:59N 53°31' E 009°57'0 0.0
2017-Aug-20 07:29N 53°31' E 009°57'0 0.0
2017-Aug-20 06:59N 53°31' E 009°57'0 0.0
2017-Aug-20 06:29N 53°31' E 009°57'0 0.0
2017-Aug-20 05:59N 53°31' E 009°57'0 0.0
2017-Aug-20 05:29N 53°31' E 009°57'0 0.0
2017-Aug-20 04:59N 53°31' E 009°57'0 0.0
2017-Aug-20 04:29N 53°31' E 009°57'0 0.0
2017-Aug-20 03:59N 53°31' E 009°57'0 0.0
2017-Aug-20 03:29N 53°31' E 009°57'0 0.0
2017-Aug-20 02:59N 53°31' E 009°57'0 0.0
2017-Aug-20 02:29N 53°31' E 009°57'0 0.0
2017-Aug-20 01:59N 53°31' E 009°57'0 0.0
2017-Aug-20 01:29N 53°31' E 009°57'0 0.0
2017-Aug-20 00:59N 53°31' E 009°57'0 0.0
2017-Aug-20 00:29N 53°31' E 009°57'0 0.0
2017-Aug-19 23:59N 53°31' E 009°57'0 0.0
2017-Aug-19 23:29N 53°31' E 009°57'0 0.0
2017-Aug-19 22:59N 53°31' E 009°57'0 0.0
2017-Aug-19 22:29N 53°31' E 009°57'0 0.0
2017-Aug-19 21:59N 53°31' E 009°57'0 0.0
2017-Aug-19 21:29N 53°31' E 009°57'0 0.0
2017-Aug-19 20:59N 53°31' E 009°57'0 0.0
2017-Aug-19 20:29N 53°31' E 009°57'0 0.0
2017-Aug-19 19:59N 53°31' E 009°57'0 0.0
2017-Aug-19 19:29N 53°31' E 009°57'0 0.0
2017-Aug-19 18:59N 53°31' E 009°57'0 0.0
2017-Aug-19 18:29N 53°31' E 009°57'0 0.0
2017-Aug-19 17:59N 53°31' E 009°57'0 0.0
2017-Aug-19 17:29N 53°31' E 009°57'0 0.0
2017-Aug-19 16:59N 53°31' E 009°57'0 0.0
2017-Aug-19 16:29N 53°31' E 009°57'0 0.0
2017-Aug-19 15:59N 53°31' E 009°57'0 0.0
2017-Aug-19 15:29N 53°31' E 009°57'0 0.0
2017-Aug-19 14:59N 53°31' E 009°57'0 0.0
2017-Aug-19 13:59N 53°31' E 009°57'0 0.0
2017-Aug-19 13:29N 53°31' E 009°57'0 0.0
2017-Aug-19 12:59N 53°31' E 009°57'0 0.0
2017-Aug-19 12:29N 53°31' E 009°57'0 0.0
2017-Aug-19 11:56N 53°31' E 009°57'0 0.0
2017-Aug-19 11:29N 53°31' E 009°57'0 0.0
2017-Aug-19 10:59N 53°31' E 009°57'0 0.0
2017-Aug-19 10:29N 53°31' E 009°57'0 0.0
2017-Aug-19 09:59N 53°31' E 009°57'0 0.0
2017-Aug-19 09:29N 53°31' E 009°57'0 0.0
2017-Aug-19 08:59N 53°31' E 009°57'0 0.0
2017-Aug-19 08:29N 53°31' E 009°57'0 0.0
2017-Aug-19 07:59N 53°31' E 009°57'0 0.0
2017-Aug-19 07:29N 53°31' E 009°57'0 0.0
2017-Aug-19 06:59N 53°31' E 009°57'0 0.0
2017-Aug-19 06:29N 53°31' E 009°57'0 0.0
2017-Aug-19 05:59N 53°31' E 009°57'0 0.0
2017-Aug-19 05:29N 53°31' E 009°57'0 0.0
2017-Aug-19 04:59N 53°31' E 009°57'0 0.0
2017-Aug-19 04:29N 53°31' E 009°57'0 0.0
2017-Aug-19 03:59N 53°31' E 009°57'0 0.0
2017-Aug-19 03:29N 53°31' E 009°57'0 0.0
2017-Aug-19 02:59N 53°31' E 009°57'0 0.0
2017-Aug-19 02:29N 53°31' E 009°57'0 0.0
2017-Aug-19 01:59N 53°31' E 009°57'0 0.0
2017-Aug-19 01:29N 53°31' E 009°57'0 0.0
2017-Aug-19 00:59N 53°31' E 009°57'0 0.0
2017-Aug-19 00:29N 53°31' E 009°57'0 0.0
2017-Aug-18 23:59N 53°31' E 009°57'0 0.0
2017-Aug-18 23:29N 53°31' E 009°57'0 0.0
2017-Aug-18 22:59N 53°31' E 009°57'0 0.0
2017-Aug-18 22:29N 53°31' E 009°57'0 0.0
2017-Aug-18 22:00N 53°31' E 009°57'0 0.5
2017-Aug-18 21:31N 53°31' E 009°57'2 4.9
2017-Aug-18 21:01N 53°32' E 009°54'4 8.5
2017-Aug-18 20:31N 53°33' E 009°47'611.6
2017-Aug-18 20:00N 53°35' E 009°38'611.5
2017-Aug-18 19:30N 53°39' E 009°31'612.7
2017-Aug-18 19:01N 53°44' E 009°26'612.7
2017-Aug-18 18:30N 53°50' E 009°21'612.2
2017-Aug-18 18:01N 53°53' E 009°12'610.9
2017-Aug-18 17:30N 53°52' E 009°02'613.0
2017-Aug-18 17:00N 53°50' E 008°52'611.6
2017-Aug-18 16:30N 53°53' E 008°43'611.7
2017-Aug-18 16:00N 53°57' E 008°37'612.5
2017-Aug-18 15:30N 53°59' E 008°26'611.6
2017-Aug-18 15:00N 53°59' E 008°17'7 6.6
2017-Aug-18 14:00N 54°02' E 008°07'3 5.8
2017-Aug-18 13:30N 54°02' E 008°12'0 0.1
2017-Aug-18 12:09N 54°02' E 008°12'0 0.0
2017-Aug-18 11:51N 54°02' E 008°12'0 0.0
2017-Aug-18 11:27N 54°02' E 008°12'0 0.1
2017-Aug-18 11:00N 54°02' E 008°12'0 0.0
2017-Aug-18 10:30N 54°03' E 008°12'0 0.0
2017-Aug-18 09:09N 54°03' E 008°12'0 0.1
2017-Aug-18 08:57N 54°02' E 008°12'0 0.0
2017-Aug-18 08:27N 54°03' E 008°12'0 0.0
2017-Aug-18 07:39N 54°02' E 008°12'0 0.0
2017-Aug-18 06:30N 54°02' E 008°12'0 0.0
2017-Aug-18 06:00N 54°02' E 008°12'0 0.0
2017-Aug-18 05:30N 54°02' E 008°12'0 0.0
2017-Aug-18 04:54N 54°02' E 008°12'0 0.0
2017-Aug-18 04:27N 54°02' E 008°12'0 0.0
2017-Aug-18 04:00N 54°02' E 008°12'0 0.0
2017-Aug-18 03:30N 54°02' E 008°12'0 0.0
2017-Aug-18 03:00N 54°02' E 008°12'0 0.0
2017-Aug-18 02:27N 54°02' E 008°12'0 0.0
2017-Aug-18 02:00N 54°02' E 008°12'0 0.1
2017-Aug-18 01:30N 54°02' E 008°12'0 0.0
2017-Aug-18 01:00N 54°03' E 008°12'0 0.0
2017-Aug-18 00:30N 54°03' E 008°12'0 0.1
2017-Aug-18 00:00N 54°03' E 008°12'0 0.1
2017-Aug-17 23:30N 54°02' E 008°12'0 0.0
2017-Aug-17 23:00N 54°02' E 008°12'0 0.1
2017-Aug-17 22:30N 54°03' E 008°12'0 0.0
2017-Aug-17 22:00N 54°03' E 008°12'0 0.0
2017-Aug-17 21:30N 54°03' E 008°12'0 0.0
2017-Aug-17 20:42N 54°03' E 008°12'0 0.0
2017-Aug-17 20:15N 54°03' E 008°12'0 0.1
2017-Aug-17 20:00N 54°03' E 008°12'0 0.1
2017-Aug-17 19:30N 54°02' E 008°12'0 0.1
2017-Aug-17 19:00N 54°02' E 008°12'0 0.0
2017-Aug-17 18:30N 54°02' E 008°12'0 0.0
2017-Aug-17 18:00N 54°02' E 008°12'0 0.0
2017-Aug-17 17:18N 54°02' E 008°12'0 0.0
2017-Aug-17 17:00N 54°02' E 008°12'0 0.0
2017-Aug-17 16:30N 54°02' E 008°12'0 0.0
2017-Aug-17 16:00N 54°02' E 008°12'0 0.1
2017-Aug-17 15:24N 54°02' E 008°12'0 0.0
2017-Aug-17 14:18N 54°02' E 008°12'0 0.1
2017-Aug-17 13:57N 54°03' E 008°12'0 0.1
2017-Aug-17 13:30N 54°02' E 008°12'0 0.1
2017-Aug-17 12:57N 54°02' E 008°12'0 0.0
2017-Aug-17 12:30N 54°02' E 008°12'0 0.0
2017-Aug-17 10:00N 54°02' E 008°12'0 0.0
2017-Aug-17 09:24N 54°02' E 008°12'0 0.0
2017-Aug-17 08:51N 54°02' E 008°12'0 0.0
2017-Aug-17 06:21N 54°02' E 008°12'0 0.0
2017-Aug-17 05:51N 54°02' E 008°12'0 0.0
2017-Aug-17 05:30N 54°02' E 008°12'0 0.0
2017-Aug-17 04:57N 54°02' E 008°12'0 0.0
2017-Aug-17 04:06N 54°02' E 008°12'0 0.1
2017-Aug-17 04:00N 54°02' E 008°12'0 0.0
2017-Aug-17 03:30N 54°02' E 008°12'0 0.0
2017-Aug-17 03:00N 54°02' E 008°12'0 0.0
2017-Aug-17 02:27N 54°02' E 008°12'0 0.0
2017-Aug-17 02:00N 54°02' E 008°12'0 0.0
2017-Aug-17 01:30N 54°02' E 008°12'0 0.0
2017-Aug-17 00:39N 54°02' E 008°12'0 0.0
2017-Aug-17 00:24N 54°02' E 008°12'0 0.0
2017-Aug-17 00:00N 54°02' E 008°12'0 0.0
2017-Aug-16 23:30N 54°02' E 008°12'0 0.0
2017-Aug-16 23:00N 54°02' E 008°12'0 0.0
2017-Aug-16 22:24N 54°02' E 008°12'0 0.0
2017-Aug-16 22:00N 54°02' E 008°12'0 0.0
2017-Aug-16 21:30N 54°02' E 008°12'0 0.0
2017-Aug-16 21:00N 54°02' E 008°12'0 0.0
2017-Aug-16 20:27N 54°02' E 008°12'0 0.0
2017-Aug-16 19:54N 54°02' E 008°12'0 0.0
2017-Aug-16 19:30N 54°02' E 008°12'0 0.0
2017-Aug-16 18:54N 54°02' E 008°12'0 0.0
2017-Aug-16 18:27N 54°02' E 008°12'0 0.1
2017-Aug-16 17:57N 54°02' E 008°12'0 0.0
2017-Aug-16 10:42N 54°02' E 008°12'0 0.1
2017-Aug-16 10:30N 54°02' E 008°12'0 0.0
2017-Aug-16 09:45N 54°02' E 008°12'0 0.0
2017-Aug-16 05:39N 54°02' E 008°12'0 0.0
2017-Aug-16 05:09N 54°02' E 008°12'0 0.1
2017-Aug-16 04:57N 54°02' E 008°12'0 0.0
2017-Aug-16 04:30N 54°02' E 008°12'0 0.0
2017-Aug-16 04:00N 54°02' E 008°12'0 0.1
2017-Aug-16 03:30N 54°02' E 008°12'0 0.0
2017-Aug-16 02:51N 54°02' E 008°12'0 0.0
2017-Aug-16 02:30N 54°02' E 008°12'0 0.0
2017-Aug-16 02:00N 54°02' E 008°12'0 0.0
2017-Aug-16 01:30N 54°02' E 008°12'0 0.1
2017-Aug-16 01:00N 54°02' E 008°12'0 0.0
2017-Aug-16 00:27N 54°02' E 008°12'0 0.2
2017-Aug-16 00:00N 54°02' E 008°12'0 0.1
2017-Aug-15 23:27N 54°02' E 008°12'0 0.0
2017-Aug-15 23:00N 54°02' E 008°12'0 0.0
2017-Aug-15 22:30N 54°02' E 008°12'0 0.0
2017-Aug-15 22:00N 54°02' E 008°12'0 0.0
2017-Aug-15 21:30N 54°02' E 008°12'0 0.0
2017-Aug-15 20:54N 54°02' E 008°12'0 0.0
2017-Aug-15 20:27N 54°02' E 008°12'0 0.0
2017-Aug-15 19:57N 54°02' E 008°12'0 0.0
2017-Aug-15 19:27N 54°02' E 008°12'0 0.0
2017-Aug-15 18:57N 54°02' E 008°12'0 0.1
2017-Aug-15 18:30N 54°02' E 008°12'0 0.1
2017-Aug-15 17:27N 54°02' E 008°12'0 0.1
2017-Aug-15 16:57N 54°02' E 008°12'0 0.0
2017-Aug-15 16:18N 54°02' E 008°12'0 0.0
2017-Aug-15 13:48N 54°02' E 008°12'0 0.0
2017-Aug-15 13:30N 54°02' E 008°12'0 0.1
2017-Aug-15 13:00N 54°02' E 008°12'0 0.0
2017-Aug-15 08:27N 54°02' E 008°12'0 0.0
2017-Aug-15 06:42N 54°02' E 008°12'0 0.0
2017-Aug-15 06:27N 54°02' E 008°12'0 0.0
2017-Aug-15 06:00N 54°02' E 008°12'0 0.0
2017-Aug-15 05:30N 54°02' E 008°12'0 0.0
2017-Aug-15 04:24N 54°02' E 008°12'0 0.0
2017-Aug-15 04:00N 54°02' E 008°12'0 0.0
2017-Aug-15 03:27N 54°02' E 008°12'0 0.0
2017-Aug-15 02:33N 54°02' E 008°12'0 0.1
2017-Aug-15 02:27N 54°02' E 008°12'0 0.1
2017-Aug-15 01:54N 54°02' E 008°12'0 0.1
2017-Aug-15 01:24N 54°02' E 008°12'0 0.1
2017-Aug-15 01:00N 54°02' E 008°12'0 0.0
2017-Aug-15 00:15N 54°02' E 008°12'0 0.1
2017-Aug-15 00:00N 54°02' E 008°12'0 0.0
2017-Aug-14 23:30N 54°02' E 008°12'0 0.0
2017-Aug-14 23:00N 54°02' E 008°12'0 0.0
2017-Aug-14 22:30N 54°02' E 008°12'0 0.0
2017-Aug-14 21:51N 54°02' E 008°12'0 0.0
2017-Aug-14 21:30N 54°02' E 008°12'0 0.0
2017-Aug-14 20:45N 54°02' E 008°12'0 0.0
2017-Aug-14 20:21N 54°02' E 008°12'0 0.0
2017-Aug-14 20:00N 54°02' E 008°12'0 0.0
2017-Aug-14 16:36N 54°02' E 008°12'0 0.0
2017-Aug-14 07:24N 54°02' E 008°11'0 0.0
2017-Aug-14 06:00N 54°02' E 008°11'0 0.0
2017-Aug-14 05:30N 54°02' E 008°11'0 0.0
2017-Aug-14 05:00N 54°02' E 008°11'0 0.1
2017-Aug-14 03:39N 54°02' E 008°12'0 0.1
2017-Aug-14 03:27N 54°02' E 008°12'0 0.0
2017-Aug-14 02:30N 54°02' E 008°12'0 0.0
2017-Aug-14 01:54N 54°02' E 008°12'0 0.0
2017-Aug-14 01:00N 54°02' E 008°12'0 0.0
2017-Aug-14 00:24N 54°02' E 008°12'0 0.0
2017-Aug-14 00:00N 54°02' E 008°12'  

Dump ship's entire track history